createdAt,value
2022-09-12T00:02:28.631Z,99180.92
2022-09-12T00:05:31.316Z,99187.52
2022-09-12T00:08:32.952Z,99188.12
2022-09-12T00:11:39.834Z,99185.47
2022-09-12T00:14:41.605Z,99179.84
2022-09-12T00:17:43.257Z,99182.80
2022-09-12T00:20:46.500Z,99182.34
2022-09-12T00:23:49.276Z,99181.14
2022-09-12T00:26:51.402Z,99181.17
2022-09-12T00:29:53.237Z,99183.40
2022-09-12T00:32:55.112Z,99187.73
2022-09-12T00:35:57.153Z,99186.38
2022-09-12T00:38:59.402Z,99184.25
2022-09-12T00:42:01.855Z,99186.98
2022-09-12T00:45:03.965Z,99187.55
2022-09-12T00:48:05.689Z,99182.42
2022-09-12T00:51:07.582Z,99183.91
2022-09-12T00:54:13.444Z,99182.00
2022-09-12T00:57:16.735Z,99186.78
2022-09-12T01:00:21.724Z,99186.04
2022-09-12T01:03:24.332Z,99186.32
2022-09-12T01:06:35.366Z,99188.14
2022-09-12T01:09:38.133Z,99191.19
2022-09-12T01:12:41.511Z,99193.59
2022-09-12T01:15:43.249Z,99194.08
2022-09-12T01:18:49.881Z,99194.29
2022-09-12T01:22:28.831Z,99199.62
2022-09-12T01:25:54.952Z,99201.38
2022-09-12T01:29:12.034Z,99195.98
2022-09-12T01:32:51.589Z,99195.64
2022-09-12T01:36:36.655Z,99194.09
2022-09-12T01:39:51.562Z,99195.11
2022-09-12T01:43:05.386Z,99195.15
2022-09-12T01:46:15.495Z,99192.17
2022-09-12T01:49:25.034Z,99192.08
2022-09-12T01:52:32.471Z,99192.55
2022-09-12T01:55:37.767Z,99194.61
2022-09-12T01:58:45.791Z,99195.14
2022-09-12T02:02:17.887Z,99193.77
2022-09-12T02:05:33.869Z,99196.70
2022-09-12T02:08:45.596Z,99201.23
2022-09-12T02:11:48.713Z,99202.30
2022-09-12T02:14:55.414Z,99203.16
2022-09-12T02:17:58.353Z,99202.32
2022-09-12T02:21:01.336Z,99203.45
2022-09-12T02:24:05.132Z,99203.36
2022-09-12T02:27:19.978Z,99199.95
2022-09-12T02:30:22.364Z,99204.30
2022-09-12T02:33:27.961Z,99196.96
2022-09-12T02:36:34.639Z,99199.38
2022-09-12T02:39:37.305Z,99197.60
2022-09-12T02:42:38.979Z,99197.70
2022-09-12T02:45:41.101Z,99196.51
2022-09-12T02:48:43.712Z,99194.73
2022-09-12T02:51:46.530Z,99194.15
2022-09-12T02:54:48.351Z,99196.39
2022-09-12T02:57:50.040Z,99193.27
2022-09-12T03:00:53.201Z,99193.56
2022-09-12T03:04:09.943Z,99192.73
2022-09-12T03:07:37.924Z,99196.61
2022-09-12T03:11:06.537Z,99196.91
2022-09-12T03:14:37.312Z,99199.35
2022-09-12T03:18:17.531Z,99204.73
2022-09-12T03:21:33.809Z,99203.48
2022-09-12T03:24:38.969Z,99207.20
2022-09-12T03:27:45.666Z,99208.77
2022-09-12T03:30:49.670Z,99215.10
2022-09-12T03:33:51.477Z,99220.77
2022-09-12T03:36:57.264Z,99219.47
2022-09-12T03:39:59.114Z,99216.67
2022-09-12T03:43:01.454Z,99218.87
2022-09-12T03:46:03.178Z,99215.83
2022-09-12T03:49:06.100Z,99217.36
2022-09-12T03:52:08.261Z,99213.05
2022-09-12T03:55:09.941Z,99218.15
2022-09-12T03:58:11.656Z,99219.76
2022-09-12T04:01:17.395Z,99226.91
2022-09-12T04:04:19.265Z,99228.77
2022-09-12T04:07:21.141Z,99227.61
2022-09-12T04:10:23.073Z,99228.53
2022-09-12T04:13:25.906Z,99228.27
2022-09-12T04:16:27.609Z,99231.72
2022-09-12T04:19:29.400Z,99230.08
2022-09-12T04:22:32.026Z,99232.38
2022-09-12T04:25:34.014Z,99230.60
2022-09-12T04:28:37.285Z,99225.02
2022-09-12T04:31:39.542Z,99233.32
2022-09-12T04:34:41.871Z,99237.82
2022-09-12T04:37:44.346Z,99239.45
2022-09-12T04:40:45.957Z,99238.25
2022-09-12T04:43:48.543Z,99234.80
2022-09-12T04:46:50.378Z,99235.85
2022-09-12T04:49:52.454Z,99238.16
2022-09-12T04:52:54.833Z,99239.80
2022-09-12T04:55:56.490Z,99244.44
2022-09-12T04:59:00.626Z,99247.59
2022-09-12T05:02:02.768Z,99252.30
2022-09-12T05:05:04.727Z,99256.01
2022-09-12T05:08:06.485Z,99260.52
2022-09-12T05:11:13.073Z,99259.91
2022-09-12T05:14:14.961Z,99263.03
2022-09-12T05:17:16.634Z,99267.19
2022-09-12T05:20:18.461Z,99267.92
2022-09-12T05:23:21.167Z,99267.94
2022-09-12T05:26:23.575Z,99271.42
2022-09-12T05:29:26.123Z,99274.57
2022-09-12T05:32:31.873Z,99279.10
2022-09-12T05:35:33.680Z,99284.34
2022-09-12T05:38:35.634Z,99282.08
2022-09-12T05:41:37.469Z,99281.70
2022-09-12T05:44:39.193Z,99279.59
2022-09-12T05:47:42.039Z,99278.23
2022-09-12T05:50:43.910Z,99278.44
2022-09-12T05:53:50.220Z,99281.23
2022-09-12T05:56:51.944Z,99281.17
2022-09-12T05:59:54.284Z,99274.04
2022-09-12T06:02:56.283Z,99278.86
2022-09-12T06:06:01.297Z,99275.86
2022-09-12T06:09:04.622Z,99276.44
2022-09-12T06:12:07.866Z,99279.86
2022-09-12T06:15:11.180Z,99276.15
2022-09-12T06:18:13.289Z,99278.39
2022-09-12T06:21:15.983Z,99273.65
2022-09-12T06:24:18.730Z,99274.14
2022-09-12T06:27:20.715Z,99280.56
2022-09-12T06:30:25.343Z,99284.45
2022-09-12T06:33:27.284Z,99290.06
2022-09-12T06:36:36.291Z,99285.17
2022-09-12T06:39:38.540Z,99289.29
2022-09-12T06:42:40.330Z,99293.04
2022-09-12T06:45:49.452Z,99292.35
2022-09-12T06:48:51.264Z,99294.64
2022-09-12T06:51:52.993Z,99294.70
2022-09-12T06:54:54.815Z,99294.60
2022-09-12T06:57:56.710Z,99288.89
2022-09-12T07:01:21.764Z,99291.84
2022-09-12T07:04:23.614Z,99287.23
2022-09-12T07:07:25.337Z,99287.62
2022-09-12T07:10:27.653Z,99284.92
2022-09-12T07:13:29.965Z,99286.24
2022-09-12T07:16:31.913Z,99286.02
2022-09-12T07:19:33.768Z,99297.36
2022-09-12T07:22:35.492Z,99304.10
2022-09-12T07:25:37.828Z,99301.99
2022-09-12T07:28:40.195Z,99302.55
2022-09-12T07:31:42.792Z,99303.64
2022-09-12T07:34:45.547Z,99308.48
2022-09-12T07:37:47.550Z,99312.02
2022-09-12T07:40:49.878Z,99313.53
2022-09-12T07:43:56.080Z,99320.15
2022-09-12T07:46:58.062Z,99316.43
2022-09-12T07:50:00.041Z,99313.66
2022-09-12T07:53:03.360Z,99317.12
2022-09-12T07:56:06.599Z,99321.56
2022-09-12T07:59:09.188Z,99327.85
2022-09-12T08:02:17.695Z,99332.34
2022-09-12T08:05:21.144Z,99337.03
2022-09-12T08:08:22.937Z,99339.45
2022-09-12T08:11:28.063Z,99342.04
2022-09-12T08:14:30.324Z,99339.52
2022-09-12T08:17:32.057Z,99340.31
2022-09-12T08:20:33.865Z,99337.95
2022-09-12T08:23:35.803Z,99337.36
2022-09-12T08:26:37.767Z,99339.64
2022-09-12T08:29:39.550Z,99338.95
2022-09-12T08:32:41.312Z,99336.61
2022-09-12T08:35:43.147Z,99333.25
2022-09-12T08:38:47.178Z,99328.02
2022-09-12T08:41:57.493Z,99324.44
2022-09-12T08:45:17.825Z,99329.63
2022-09-12T08:48:20.014Z,99335.42
2022-09-12T08:51:22.240Z,99343.34
2022-09-12T08:54:27.640Z,99344.96
2022-09-12T08:57:29.753Z,99336.94
2022-09-12T09:00:59.467Z,99329.69
2022-09-12T09:04:25.778Z,99325.23
2022-09-12T09:07:51.909Z,99323.27
2022-09-12T09:11:05.258Z,99328.08
2022-09-12T09:14:36.500Z,99329.85
2022-09-12T09:17:40.478Z,99327.95
2022-09-12T09:20:49.870Z,99322.18
2022-09-12T09:23:57.448Z,99317.80
2022-09-12T09:27:29.801Z,99317.67
2022-09-12T09:30:35.944Z,99319.48
2022-09-12T09:33:38.008Z,99319.03
2022-09-12T09:36:49.910Z,99319.50
2022-09-12T09:40:19.603Z,99318.65
2022-09-12T09:43:23.937Z,99330.41
2022-09-12T09:46:27.179Z,99328.73
2022-09-12T09:49:32.198Z,99334.73
2022-09-12T09:52:36.029Z,99328.98
2022-09-12T09:55:43.947Z,99332.71
2022-09-12T09:58:45.840Z,99334.84
2022-09-12T10:01:52.923Z,99338.55
2022-09-12T10:04:58.844Z,99334.33
2022-09-12T10:08:00.926Z,99338.94
2022-09-12T10:11:15.232Z,99331.26
2022-09-12T10:14:38.850Z,99336.05
2022-09-12T10:17:49.430Z,99335.65
2022-09-12T10:20:51.492Z,99331.64
2022-09-12T10:24:01.335Z,99336.57
2022-09-12T10:27:12.634Z,99334.73
2022-09-12T10:30:14.760Z,99333.80
2022-09-12T10:33:17.150Z,99337.56
2022-09-12T10:36:20.170Z,99340.39
2022-09-12T10:39:22.577Z,99339.05
2022-09-12T10:42:53.005Z,99336.63
2022-09-12T10:46:01.157Z,99335.74
2022-09-12T10:49:28.948Z,99336.06
2022-09-12T10:52:31.003Z,99335.78
2022-09-12T10:55:34.849Z,99336.36
2022-09-12T10:58:56.150Z,99331.72
2022-09-12T11:02:05.455Z,99334.27
2022-09-12T11:05:38.703Z,99327.06
2022-09-12T11:08:55.769Z,99328.21
2022-09-12T11:12:10.532Z,99326.21
2022-09-12T11:15:31.089Z,99323.81
2022-09-12T11:18:45.271Z,99323.08
2022-09-12T11:22:10.865Z,99328.38
2022-09-12T11:25:26.182Z,99320.77
2022-09-12T11:28:49.192Z,99315.83
2022-09-12T11:32:25.209Z,99320.77
2022-09-12T11:35:32.604Z,99318.22
2022-09-12T11:38:52.746Z,99320.30
2022-09-12T11:42:00.421Z,99321.73
2022-09-12T11:45:24.771Z,99321.42
2022-09-12T11:48:52.394Z,99317.92
2022-09-12T11:51:56.455Z,99319.93
2022-09-12T11:55:05.408Z,99316.62
2022-09-12T11:58:08.853Z,99325.98
2022-09-12T12:01:23.272Z,99324.98
2022-09-12T12:04:30.258Z,99329.25
2022-09-12T12:07:44.773Z,99322.95
2022-09-12T12:11:00.042Z,99323.39
2022-09-12T12:14:03.274Z,99323.26
2022-09-12T12:17:05.335Z,99325.45
2022-09-12T12:20:16.360Z,99327.25
2022-09-12T12:23:25.631Z,99324.41
2022-09-12T12:26:39.859Z,99322.83
2022-09-12T12:29:44.459Z,99322.33
2022-09-12T12:32:46.635Z,99316.56
2022-09-12T12:36:00.586Z,99323.73
2022-09-12T12:39:33.350Z,99323.48
2022-09-12T12:42:35.392Z,99323.70
2022-09-12T12:45:37.786Z,99320.41
2022-09-12T12:49:21.785Z,99322.45
2022-09-12T12:52:25.517Z,99323.71
2022-09-12T12:55:46.508Z,99325.27
2022-09-12T12:58:48.291Z,99325.45
2022-09-12T13:01:55.643Z,99326.34
2022-09-12T13:04:59.782Z,99326.52
2022-09-12T13:08:10.554Z,99323.59
2022-09-12T13:11:14.547Z,99316.44
2022-09-12T13:14:42.825Z,99320.36
2022-09-12T13:17:45.053Z,99322.60
2022-09-12T13:20:54.853Z,99320.70
2022-09-12T13:24:14.169Z,99312.04
2022-09-12T13:27:25.493Z,99309.95
2022-09-12T13:30:33.161Z,99307.84
2022-09-12T13:33:43.959Z,99302.37
2022-09-12T13:37:15.346Z,99298.95
2022-09-12T13:40:54.917Z,99303.73
2022-09-12T13:43:57.259Z,99306.67
2022-09-12T13:47:01.113Z,99299.59
2022-09-12T13:50:04.787Z,99300.52
2022-09-12T13:53:12.752Z,99297.61
2022-09-12T13:56:18.962Z,99298.25
2022-09-12T13:59:20.823Z,99295.11
2022-09-12T14:02:25.506Z,99294.92
2022-09-12T14:05:27.307Z,99300.20
2022-09-12T14:08:29.922Z,99299.72
2022-09-12T14:11:33.895Z,99295.02
2022-09-12T14:14:37.779Z,99296.62
2022-09-12T14:17:39.712Z,99296.11
2022-09-12T14:20:41.982Z,99304.55
2022-09-12T14:23:45.192Z,99302.80
2022-09-12T14:26:47.979Z,99304.27
2022-09-12T14:29:53.539Z,99305.89
2022-09-12T14:33:04.057Z,99306.81
2022-09-12T14:36:12.116Z,99307.23
2022-09-12T14:39:28.181Z,99308.88
2022-09-12T14:42:31.358Z,99306.84
2022-09-12T14:45:33.163Z,99308.91
2022-09-12T14:48:36.806Z,99305.84
2022-09-12T14:51:41.249Z,99301.35
2022-09-12T14:54:44.587Z,99305.21
2022-09-12T14:57:46.640Z,99304.61
2022-09-12T15:01:11.460Z,99300.11
2022-09-12T15:04:43.201Z,99306.10
2022-09-12T15:07:50.811Z,99304.45
2022-09-12T15:10:52.918Z,99301.78
2022-09-12T15:13:54.707Z,99303.92
2022-09-12T15:16:56.883Z,99306.56
2022-09-12T15:19:58.722Z,99304.63
2022-09-12T15:23:00.632Z,99300.92
2022-09-12T15:26:03.313Z,99300.12
2022-09-12T15:29:05.101Z,99304.56
2022-09-12T15:32:06.971Z,99303.84
2022-09-12T15:35:20.925Z,99302.23
2022-09-12T15:38:26.541Z,99302.17
2022-09-12T15:41:36.945Z,99300.11
2022-09-12T15:44:39.921Z,99301.13
2022-09-12T15:47:41.652Z,99303.23
2022-09-12T15:50:43.361Z,99309.67
2022-09-12T15:53:46.097Z,99311.71
2022-09-12T15:56:47.729Z,99309.36
2022-09-12T15:59:49.358Z,99309.49
2022-09-12T16:02:52.805Z,99309.86
2022-09-12T16:05:56.652Z,99313.98
2022-09-12T16:08:58.420Z,99315.50
2022-09-12T16:12:00.268Z,99313.95
2022-09-12T16:15:02.680Z,99315.79
2022-09-12T16:18:04.402Z,99318.95
2022-09-12T16:21:08.208Z,99320.08
2022-09-12T16:24:13.176Z,99322.88
2022-09-12T16:27:14.967Z,99319.77
2022-09-12T16:30:16.686Z,99322.59
2022-09-12T16:33:18.637Z,99329.48
2022-09-12T16:36:21.612Z,99324.57
2022-09-12T16:39:23.867Z,99324.20
2022-09-12T16:42:25.625Z,99325.38
2022-09-12T16:45:27.248Z,99328.25
2022-09-12T16:48:29.705Z,99332.14
2022-09-12T16:51:33.873Z,99329.20
2022-09-12T16:54:36.107Z,99330.42
2022-09-12T16:57:37.921Z,99331.63
2022-09-12T17:00:39.859Z,99330.41
2022-09-12T17:03:41.886Z,99335.02
2022-09-12T17:06:44.226Z,99336.70
2022-09-12T17:09:48.053Z,99344.04
2022-09-12T17:12:50.300Z,99343.02
2022-09-12T17:15:52.093Z,99342.73
2022-09-12T17:18:54.322Z,99344.17
2022-09-12T17:21:57.170Z,99348.86
2022-09-12T17:24:59.010Z,99352.70
2022-09-12T17:28:00.677Z,99355.36
2022-09-12T17:31:08.887Z,99359.34
2022-09-12T17:34:14.630Z,99360.75
2022-09-12T17:37:17.733Z,99366.40
2022-09-12T17:40:19.897Z,99369.72
2022-09-12T17:43:21.753Z,99371.50
2022-09-12T17:46:26.740Z,99371.09
2022-09-12T17:49:28.622Z,99369.13
2022-09-12T17:52:30.992Z,99370.92
2022-09-12T17:55:36.933Z,99371.76
2022-09-12T17:58:39.135Z,99372.86
2022-09-12T18:01:59.807Z,99375.00
2022-09-12T18:05:05.353Z,99378.98
2022-09-12T18:08:07.162Z,99379.51
2022-09-12T18:11:08.925Z,99378.20
2022-09-12T18:14:14.009Z,99380.82
2022-09-12T18:17:17.108Z,99386.06
2022-09-12T18:20:19.034Z,99385.04
2022-09-12T18:23:20.894Z,99385.58
2022-09-12T18:26:22.802Z,99388.40
2022-09-12T18:29:25.603Z,99389.29
2022-09-12T18:32:27.677Z,99391.02
2022-09-12T18:35:29.374Z,99391.98
2022-09-12T18:38:31.886Z,99389.91
2022-09-12T18:41:34.037Z,99382.06
2022-09-12T18:44:36.016Z,99383.83
2022-09-12T18:47:37.936Z,99383.54
2022-09-12T18:50:39.744Z,99384.67
2022-09-12T18:53:42.738Z,99386.70
2022-09-12T18:56:45.686Z,99385.45
2022-09-12T18:59:47.850Z,99386.02
2022-09-12T19:02:49.486Z,99385.31
2022-09-12T19:05:51.320Z,99384.36
2022-09-12T19:08:54.255Z,99387.39
2022-09-12T19:11:56.168Z,99390.23
2022-09-12T19:14:58.214Z,99392.17
2022-09-12T19:18:00.219Z,99393.80
2022-09-12T19:21:02.256Z,99388.86
2022-09-12T19:24:06.527Z,99393.89
2022-09-12T19:27:08.315Z,99392.27
2022-09-12T19:30:10.951Z,99388.41
2022-09-12T19:33:12.773Z,99389.05
2022-09-12T19:36:43.305Z,99386.64
2022-09-12T19:39:39.135Z,99382.66
2022-09-12T19:42:41.456Z,99382.77
2022-09-12T19:45:49.552Z,99383.30
2022-09-12T19:49:05.615Z,99380.28
2022-09-12T19:52:08.400Z,99375.73
2022-09-12T19:55:10.893Z,99376.59
2022-09-12T19:58:13.663Z,99375.84
2022-09-12T20:01:20.228Z,99376.70
2022-09-12T20:04:21.892Z,99373.70
2022-09-12T20:07:23.735Z,99375.38
2022-09-12T20:10:27.916Z,99373.86
2022-09-12T20:13:29.613Z,99370.86
2022-09-12T20:16:33.614Z,99374.49
2022-09-12T20:19:37.966Z,99371.73
2022-09-12T20:22:40.283Z,99369.48
2022-09-12T20:25:44.572Z,99367.40
2022-09-12T20:28:46.489Z,99361.55
2022-09-12T20:31:48.313Z,99361.65
2022-09-12T20:34:49.980Z,99358.79
2022-09-12T20:37:51.501Z,99360.14
2022-09-12T20:40:53.113Z,99355.67
2022-09-12T20:43:56.521Z,99353.04
2022-09-12T20:46:58.309Z,99356.59
2022-09-12T20:50:00.134Z,99356.27
2022-09-12T20:53:01.943Z,99356.60
2022-09-12T20:56:05.438Z,99353.32
2022-09-12T20:59:07.685Z,99355.73
2022-09-12T21:02:13.082Z,99352.17
2022-09-12T21:05:14.712Z,99360.20
2022-09-12T21:08:16.607Z,99361.60
2022-09-12T21:11:19.966Z,99364.75
2022-09-12T21:14:21.575Z,99365.19
2022-09-12T21:17:23.077Z,99364.50
2022-09-12T21:20:24.932Z,99366.45
2022-09-12T21:23:27.515Z,99367.52
2022-09-12T21:26:30.049Z,99366.48
2022-09-12T21:29:31.813Z,99362.38
2022-09-12T21:32:36.046Z,99363.11
2022-09-12T21:35:37.929Z,99365.61
2022-09-12T21:38:39.578Z,99363.84
2022-09-12T21:41:41.274Z,99364.08
2022-09-12T21:44:42.805Z,99359.20
2022-09-12T21:47:44.872Z,99363.13
2022-09-12T21:50:50.392Z,99364.08
2022-09-12T21:53:54.487Z,99357.79
2022-09-12T21:56:56.423Z,99350.58
2022-09-12T22:00:00.654Z,99348.55
2022-09-12T22:03:02.710Z,99354.27
2022-09-12T22:06:07.467Z,99357.37
2022-09-12T22:09:09.825Z,99359.09
2022-09-12T22:12:11.630Z,99363.23
2022-09-12T22:15:38.921Z,99361.36
2022-09-12T22:18:39.384Z,99361.78
2022-09-12T22:22:01.042Z,99366.92
2022-09-12T22:25:02.685Z,99358.82
2022-09-12T22:28:04.724Z,99353.64
2022-09-12T22:31:06.788Z,99349.63
2022-09-12T22:34:08.678Z,99347.23
2022-09-12T22:37:13.192Z,99341.17
2022-09-12T22:40:15.883Z,99333.70
2022-09-12T22:43:17.829Z,99331.75
2022-09-12T22:46:19.730Z,99332.91
2022-09-12T22:49:21.499Z,99330.48
2022-09-12T22:52:24.798Z,99324.86
2022-09-12T22:55:26.556Z,99319.85
2022-09-12T22:58:28.424Z,99323.57
2022-09-12T23:01:31.925Z,99322.77
2022-09-12T23:04:33.665Z,99323.17
2022-09-12T23:07:55.640Z,99322.39
2022-09-12T23:11:01.737Z,99321.58
2022-09-12T23:14:08.987Z,99320.23
2022-09-12T23:17:10.728Z,99320.83
2022-09-12T23:20:12.727Z,99321.77
2022-09-12T23:23:14.479Z,99318.61
2022-09-12T23:26:28.291Z,99317.03
2022-09-12T23:29:30.182Z,99317.16
2022-09-12T23:32:34.373Z,99318.67
2022-09-12T23:35:36.404Z,99322.48
2022-09-12T23:38:38.240Z,99316.52
2022-09-12T23:41:41.745Z,99316.95
2022-09-12T23:44:43.769Z,99318.73
2022-09-12T23:47:45.368Z,99313.45
2022-09-12T23:50:48.800Z,99313.26
2022-09-12T23:53:50.579Z,99311.48
2022-09-12T23:56:52.550Z,99313.33
2022-09-12T23:59:54.154Z,99315.94
